createdAt,value
2023-02-23T00:00:10.092Z,84
2023-02-23T00:00:42.228Z,84
2023-02-23T00:01:13.208Z,84
2023-02-23T00:01:45.884Z,84
2023-02-23T00:02:17.059Z,84
2023-02-23T00:02:50.142Z,84
2023-02-23T00:03:21.074Z,84
2023-02-23T00:03:37.214Z,84
2023-02-23T00:04:09.240Z,84
2023-02-23T00:04:41.049Z,84
2023-02-23T00:05:14.388Z,84
2023-02-23T00:05:45.192Z,84
2023-02-23T00:06:17.791Z,84
2023-02-23T00:06:49.157Z,84
2023-02-23T00:07:22.058Z,84
2023-02-23T00:07:53.213Z,84
2023-02-23T00:08:26.073Z,84
2023-02-23T00:08:57.151Z,84
2023-02-23T00:09:29.929Z,84
2023-02-23T00:10:01.430Z,84
2023-02-23T00:10:34.048Z,84
2023-02-23T00:11:05.103Z,84
2023-02-23T00:11:37.896Z,84
2023-02-23T00:12:08.970Z,84
2023-02-23T00:12:42.102Z,84
2023-02-23T00:13:13.200Z,84
2023-02-23T00:13:45.743Z,84
2023-02-23T00:14:17.074Z,84
2023-02-23T00:14:49.855Z,84
2023-02-23T00:15:22.237Z,84
2023-02-23T00:15:54.121Z,84
2023-02-23T00:16:25.138Z,84
2023-02-23T00:16:57.852Z,84
2023-02-23T00:17:29.062Z,84
2023-02-23T00:18:02.247Z,84
2023-02-23T00:18:33.155Z,84
2023-02-23T00:19:06.018Z,84
2023-02-23T00:19:37.088Z,84
2023-02-23T00:20:10.095Z,84
2023-02-23T00:20:40.995Z,84
2023-02-23T00:21:14.017Z,84
2023-02-23T00:21:45.140Z,84
2023-02-23T00:22:17.949Z,84
2023-02-23T00:22:49.024Z,84
2023-02-23T00:23:21.945Z,84
2023-02-23T00:23:53.149Z,84
2023-02-23T00:24:25.773Z,84
2023-02-23T00:24:57.039Z,84
2023-02-23T00:25:30.422Z,83
2023-02-23T00:26:01.220Z,83
2023-02-23T00:26:34.025Z,84
2023-02-23T00:27:05.071Z,84
2023-02-23T00:27:38.223Z,84
2023-02-23T00:28:09.027Z,84
2023-02-23T00:28:41.917Z,84
2023-02-23T00:29:13.157Z,84
2023-02-23T00:29:45.865Z,84
2023-02-23T00:30:18.120Z,84
2023-02-23T00:30:50.031Z,84
2023-02-23T00:31:21.238Z,84
2023-02-23T00:31:53.882Z,84
2023-02-23T00:32:25.231Z,84
2023-02-23T00:32:58.183Z,84
2023-02-23T00:33:29.257Z,84
2023-02-23T00:34:02.669Z,84
2023-02-23T00:34:33.185Z,84
2023-02-23T00:35:07.155Z,84
2023-02-23T00:35:37.084Z,84
2023-02-23T00:36:10.090Z,84
2023-02-23T00:36:41.176Z,84
2023-02-23T00:37:13.787Z,84
2023-02-23T00:37:45.146Z,84
2023-02-23T00:38:17.910Z,84
2023-02-23T00:38:49.102Z,84
2023-02-23T00:39:21.925Z,84
2023-02-23T00:39:53.227Z,84
2023-02-23T00:40:26.234Z,84
2023-02-23T00:40:57.091Z,84
2023-02-23T00:41:31.040Z,84
2023-02-23T00:42:01.196Z,84
2023-02-23T00:42:33.864Z,84
2023-02-23T00:43:05.050Z,84
2023-02-23T00:43:38.016Z,84
2023-02-23T00:44:09.124Z,84
2023-02-23T00:44:41.887Z,84
2023-02-23T00:45:14.024Z,84
2023-02-23T00:45:46.340Z,84
2023-02-23T00:46:17.129Z,84
2023-02-23T00:46:49.958Z,84
2023-02-23T00:47:21.088Z,84
2023-02-23T00:47:54.022Z,84
2023-02-23T00:48:25.057Z,84
2023-02-23T00:48:58.264Z,84
2023-02-23T00:49:29.193Z,84
2023-02-23T00:50:02.339Z,84
2023-02-23T00:50:33.111Z,84
2023-02-23T00:51:06.747Z,84
2023-02-23T00:51:37.257Z,84
2023-02-23T00:52:09.841Z,84
2023-02-23T00:52:41.146Z,84
2023-02-23T00:53:13.931Z,84
2023-02-23T00:53:44.920Z,84
2023-02-23T00:54:17.822Z,84
2023-02-23T00:54:49.096Z,84
2023-02-23T00:55:23.399Z,84
2023-02-23T00:55:53.130Z,84
2023-02-23T00:56:25.796Z,84
2023-02-23T00:56:57.113Z,84
2023-02-23T00:57:29.953Z,84
2023-02-23T00:58:01.082Z,84
2023-02-23T00:58:34.157Z,84
2023-02-23T00:59:05.175Z,84
2023-02-23T00:59:37.803Z,84
2023-02-23T01:00:10.218Z,84
2023-02-23T01:00:41.858Z,84
2023-02-23T01:01:12.952Z,84
2023-02-23T01:01:45.945Z,84
2023-02-23T01:02:17.201Z,84
2023-02-23T01:02:50.121Z,84
2023-02-23T01:03:21.175Z,84
2023-02-23T01:03:37.197Z,84
2023-02-23T01:04:09.025Z,84
2023-02-23T01:04:41.045Z,84
2023-02-23T01:05:13.490Z,84
2023-02-23T01:05:45.047Z,84
2023-02-23T01:06:17.849Z,84
2023-02-23T01:06:49.244Z,84
2023-02-23T01:07:22.165Z,84
2023-02-23T01:07:53.056Z,84
2023-02-23T01:08:25.960Z,84
2023-02-23T01:08:57.045Z,84
2023-02-23T01:09:29.825Z,84
2023-02-23T01:10:01.413Z,84
2023-02-23T01:10:33.895Z,84
2023-02-23T01:11:05.144Z,84
2023-02-23T01:11:37.772Z,85
2023-02-23T01:12:09.020Z,85
2023-02-23T01:12:42.131Z,85
2023-02-23T01:13:13.023Z,85
2023-02-23T01:13:45.876Z,85
2023-02-23T01:14:17.061Z,85
2023-02-23T01:14:49.972Z,85
2023-02-23T01:15:22.136Z,85
2023-02-23T01:15:54.229Z,85
2023-02-23T01:16:25.103Z,85
2023-02-23T01:16:57.737Z,85
2023-02-23T01:17:28.988Z,85
2023-02-23T01:18:02.260Z,85
2023-02-23T01:18:33.093Z,85
2023-02-23T01:19:05.902Z,85
2023-02-23T01:19:37.115Z,85
2023-02-23T01:20:10.178Z,85
2023-02-23T01:20:42.397Z,85
2023-02-23T01:21:13.881Z,85
2023-02-23T01:21:45.131Z,85
2023-02-23T01:22:18.211Z,85
2023-02-23T01:22:49.032Z,85
2023-02-23T01:23:05.228Z,85
2023-02-23T01:23:37.070Z,85
2023-02-23T01:24:09.060Z,85
2023-02-23T01:24:41.216Z,85
2023-02-23T01:25:13.308Z,85
2023-02-23T01:25:45.875Z,85
2023-02-23T01:26:17.118Z,85
2023-02-23T01:26:49.974Z,85
2023-02-23T01:27:21.045Z,85
2023-02-23T01:27:55.120Z,85
2023-02-23T01:28:25.139Z,85
2023-02-23T01:28:58.084Z,85
2023-02-23T01:29:29.158Z,85
2023-02-23T01:30:03.459Z,85
2023-02-23T01:30:33.152Z,85
2023-02-23T01:31:06.245Z,85
2023-02-23T01:31:37.222Z,85
2023-02-23T01:32:10.166Z,85
2023-02-23T01:32:41.022Z,85
2023-02-23T01:33:14.092Z,85
2023-02-23T01:33:45.108Z,85
2023-02-23T01:34:18.099Z,85
2023-02-23T01:34:48.974Z,85
2023-02-23T01:35:05.464Z,85
2023-02-23T01:35:36.962Z,85
2023-02-23T01:36:09.103Z,85
2023-02-23T01:36:41.134Z,85
2023-02-23T01:37:13.180Z,85
2023-02-23T01:37:44.978Z,85
2023-02-23T01:38:17.051Z,85
2023-02-23T01:38:49.268Z,85
2023-02-23T01:39:21.089Z,85
2023-02-23T01:39:54.085Z,85
2023-02-23T01:40:25.692Z,85
2023-02-23T01:40:57.991Z,85
2023-02-23T01:41:29.043Z,85
2023-02-23T01:42:02.064Z,85
2023-02-23T01:42:33.086Z,85
2023-02-23T01:43:05.961Z,85
2023-02-23T01:43:37.166Z,85
2023-02-23T01:44:10.049Z,85
2023-02-23T01:44:41.129Z,85
2023-02-23T01:45:15.283Z,85
2023-02-23T01:45:45.348Z,85
2023-02-23T01:46:17.893Z,85
2023-02-23T01:46:49.031Z,85
2023-02-23T01:47:21.868Z,85
2023-02-23T01:47:53.230Z,85
2023-02-23T01:48:25.868Z,85
2023-02-23T01:48:57.127Z,85
2023-02-23T01:49:30.002Z,85
2023-02-23T01:50:01.397Z,85
2023-02-23T01:50:33.940Z,85
2023-02-23T01:51:05.206Z,85
2023-02-23T01:51:37.939Z,85
2023-02-23T01:52:09.032Z,85
2023-02-23T01:52:41.960Z,85
2023-02-23T01:53:13.206Z,85
2023-02-23T01:53:45.821Z,85
2023-02-23T01:54:17.181Z,85
2023-02-23T01:54:50.843Z,85
2023-02-23T01:55:21.551Z,85
2023-02-23T01:55:53.704Z,85
2023-02-23T01:56:25.124Z,85
2023-02-23T01:56:58.544Z,85
2023-02-23T01:57:29.064Z,85
2023-02-23T01:58:02.725Z,85
2023-02-23T01:58:33.043Z,85
2023-02-23T01:59:06.053Z,85
2023-02-23T01:59:37.003Z,85
2023-02-23T02:00:11.010Z,85
2023-02-23T02:00:41.248Z,85
2023-02-23T02:01:13.851Z,85
2023-02-23T02:01:45.289Z,85
2023-02-23T02:02:17.991Z,85
2023-02-23T02:02:49.169Z,85
2023-02-23T02:03:21.921Z,85
2023-02-23T02:03:53.028Z,85
2023-02-23T02:04:26.123Z,85
2023-02-23T02:04:57.015Z,85
2023-02-23T02:05:30.289Z,85
2023-02-23T02:06:01.220Z,85
2023-02-23T02:06:33.646Z,85
2023-02-23T02:07:05.014Z,85
2023-02-23T02:07:38.095Z,85
2023-02-23T02:08:09.236Z,85
2023-02-23T02:08:41.760Z,85
2023-02-23T02:09:13.214Z,85
2023-02-23T02:09:45.901Z,85
2023-02-23T02:10:17.328Z,85
2023-02-23T02:10:49.774Z,85
2023-02-23T02:11:21.320Z,85
2023-02-23T02:11:54.016Z,85
2023-02-23T02:12:25.118Z,85
2023-02-23T02:12:58.018Z,85
2023-02-23T02:13:29.253Z,85
2023-02-23T02:14:01.787Z,85
2023-02-23T02:14:33.051Z,85
2023-02-23T02:15:07.002Z,85
2023-02-23T02:15:37.330Z,86
2023-02-23T02:16:09.796Z,86
2023-02-23T02:16:41.072Z,86
2023-02-23T02:17:14.087Z,86
2023-02-23T02:17:45.135Z,85
2023-02-23T02:18:19.504Z,85
2023-02-23T02:18:49.113Z,86
2023-02-23T02:19:22.020Z,86
2023-02-23T02:19:53.255Z,86
2023-02-23T02:20:26.260Z,86
2023-02-23T02:20:57.139Z,86
2023-02-23T02:21:29.859Z,86
2023-02-23T02:22:01.123Z,86
2023-02-23T02:22:34.000Z,86
2023-02-23T02:23:05.212Z,86
2023-02-23T02:23:37.716Z,86
2023-02-23T02:24:09.031Z,86
2023-02-23T02:24:41.849Z,86
2023-02-23T02:25:13.410Z,86
2023-02-23T02:25:45.864Z,86
2023-02-23T02:26:17.185Z,86
2023-02-23T02:26:49.988Z,86
2023-02-23T02:27:21.032Z,86
2023-02-23T02:27:53.877Z,86
2023-02-23T02:28:25.124Z,86
2023-02-23T02:28:58.866Z,86
2023-02-23T02:29:29.190Z,86
2023-02-23T02:30:03.483Z,86
2023-02-23T02:30:33.338Z,86
2023-02-23T02:31:09.977Z,86
2023-02-23T02:31:37.275Z,86
2023-02-23T02:32:09.304Z,86
2023-02-23T02:32:41.075Z,86
2023-02-23T02:33:13.092Z,86
2023-02-23T02:33:45.978Z,86
2023-02-23T02:34:17.141Z,86
2023-02-23T02:34:49.910Z,86
2023-02-23T02:35:21.401Z,86
2023-02-23T02:35:53.910Z,86
2023-02-23T02:36:24.983Z,86
2023-02-23T02:36:58.837Z,86
2023-02-23T02:37:29.170Z,86
2023-02-23T02:38:02.109Z,86
2023-02-23T02:38:33.081Z,86
2023-02-23T02:39:06.065Z,86
2023-02-23T02:39:37.438Z,86
2023-02-23T02:40:11.008Z,86
2023-02-23T02:40:41.158Z,86
2023-02-23T02:41:14.165Z,86
2023-02-23T02:41:44.937Z,86
2023-02-23T02:42:17.940Z,86
2023-02-23T02:42:49.131Z,86
2023-02-23T02:43:22.223Z,86
2023-02-23T02:43:53.074Z,86
2023-02-23T02:44:25.926Z,86
2023-02-23T02:44:57.097Z,86
2023-02-23T02:45:31.114Z,86
2023-02-23T02:46:01.248Z,86
2023-02-23T02:46:34.056Z,86
2023-02-23T02:47:05.130Z,86
2023-02-23T02:47:37.953Z,85
2023-02-23T02:48:09.161Z,85
2023-02-23T02:48:41.992Z,85
2023-02-23T02:49:13.015Z,85
2023-02-23T02:49:46.013Z,85
2023-02-23T02:50:17.465Z,85
2023-02-23T02:50:49.887Z,86
2023-02-23T02:51:21.312Z,86
2023-02-23T02:51:37.319Z,85
2023-02-23T02:52:09.033Z,85
2023-02-23T02:52:41.248Z,86
2023-02-23T02:53:13.152Z,86
2023-02-23T02:53:45.076Z,86
2023-02-23T02:54:17.887Z,86
2023-02-23T02:54:49.193Z,86
2023-02-23T02:55:22.131Z,86
2023-02-23T02:55:53.146Z,86
2023-02-23T02:56:26.008Z,86
2023-02-23T02:56:57.219Z,86
2023-02-23T02:57:29.979Z,86
2023-02-23T02:58:01.179Z,86
2023-02-23T02:58:33.911Z,86
2023-02-23T02:59:05.209Z,86
2023-02-23T02:59:37.911Z,86
2023-02-23T03:00:10.386Z,86
2023-02-23T03:00:42.563Z,86
2023-02-23T03:01:13.011Z,86
2023-02-23T03:01:45.885Z,86
2023-02-23T03:02:17.173Z,86
2023-02-23T03:02:49.902Z,86
2023-02-23T03:03:21.074Z,86
2023-02-23T03:03:37.316Z,86
2023-02-23T03:04:09.085Z,86
2023-02-23T03:04:41.174Z,86
2023-02-23T03:05:14.472Z,86
2023-02-23T03:05:45.062Z,87
2023-02-23T03:06:17.917Z,87
2023-02-23T03:06:49.244Z,87
2023-02-23T03:07:21.952Z,87
2023-02-23T03:07:53.063Z,87
2023-02-23T03:08:25.945Z,87
2023-02-23T03:08:57.222Z,87
2023-02-23T03:09:29.841Z,87
2023-02-23T03:10:01.540Z,87
2023-02-23T03:10:34.081Z,87
2023-02-23T03:11:05.156Z,87
2023-02-23T03:11:37.866Z,87
2023-02-23T03:12:09.198Z,87
2023-02-23T03:12:41.912Z,87
2023-02-23T03:13:13.143Z,87
2023-02-23T03:13:46.027Z,87
2023-02-23T03:14:17.228Z,87
2023-02-23T03:14:49.903Z,87
2023-02-23T03:15:22.256Z,87
2023-02-23T03:15:54.185Z,87
2023-02-23T03:16:25.108Z,87
2023-02-23T03:16:58.070Z,87
2023-02-23T03:17:29.196Z,88
2023-02-23T03:18:03.101Z,88
2023-02-23T03:18:33.016Z,88
2023-02-23T03:19:05.989Z,88
2023-02-23T03:19:37.213Z,88
2023-02-23T03:20:10.119Z,88
2023-02-23T03:20:41.035Z,88
2023-02-23T03:21:14.004Z,88
2023-02-23T03:21:45.227Z,88
2023-02-23T03:22:17.970Z,88
2023-02-23T03:22:49.142Z,88
2023-02-23T03:23:21.908Z,88
2023-02-23T03:23:53.103Z,88
2023-02-23T03:24:25.949Z,88
2023-02-23T03:24:57.102Z,88
2023-02-23T03:25:30.519Z,88
2023-02-23T03:26:01.013Z,87
2023-02-23T03:26:33.900Z,87
2023-02-23T03:27:05.204Z,87
2023-02-23T03:27:38.036Z,87
2023-02-23T03:28:09.160Z,87
2023-02-23T03:28:42.853Z,87
2023-02-23T03:29:13.250Z,87
2023-02-23T03:29:46.090Z,87
2023-02-23T03:30:18.174Z,87
2023-02-23T03:30:50.403Z,87
2023-02-23T03:31:21.412Z,87
2023-02-23T03:31:54.084Z,87
2023-02-23T03:32:25.335Z,87
2023-02-23T03:32:58.185Z,87
2023-02-23T03:33:29.093Z,87
2023-02-23T03:34:01.972Z,87
2023-02-23T03:34:33.305Z,87
2023-02-23T03:35:06.271Z,87
2023-02-23T03:35:37.148Z,87
2023-02-23T03:36:10.348Z,87
2023-02-23T03:36:41.325Z,87
2023-02-23T03:37:14.170Z,87
2023-02-23T03:37:45.222Z,87
2023-02-23T03:38:18.053Z,87
2023-02-23T03:38:49.030Z,87
2023-02-23T03:39:21.980Z,87
2023-02-23T03:39:53.282Z,87
2023-02-23T03:40:26.415Z,87
2023-02-23T03:40:57.060Z,87
2023-02-23T03:41:30.127Z,87
2023-02-23T03:42:01.248Z,87
2023-02-23T03:42:35.021Z,87
2023-02-23T03:43:05.164Z,87
2023-02-23T03:43:38.156Z,87
2023-02-23T03:44:09.082Z,87
2023-02-23T03:44:42.008Z,87
2023-02-23T03:45:14.088Z,87
2023-02-23T03:45:46.108Z,87
2023-02-23T03:46:17.119Z,87
2023-02-23T03:46:49.967Z,87
2023-02-23T03:47:21.239Z,87
2023-02-23T03:47:55.098Z,87
2023-02-23T03:48:25.162Z,87
2023-02-23T03:48:58.823Z,87
2023-02-23T03:49:29.279Z,87
2023-02-23T03:50:02.516Z,87
2023-02-23T03:50:33.146Z,87
2023-02-23T03:51:06.192Z,87
2023-02-23T03:51:37.088Z,87
2023-02-23T03:52:10.176Z,87
2023-02-23T03:52:41.274Z,87
2023-02-23T03:53:14.113Z,87
2023-02-23T03:53:45.091Z,87
2023-02-23T03:54:21.828Z,87
2023-02-23T03:54:49.327Z,87
2023-02-23T03:55:21.433Z,87
2023-02-23T03:55:54.794Z,87
2023-02-23T03:56:25.155Z,87
2023-02-23T03:56:57.813Z,88
2023-02-23T03:57:29.115Z,88
2023-02-23T03:58:02.338Z,88
2023-02-23T03:58:33.239Z,88
2023-02-23T03:59:06.037Z,88
2023-02-23T03:59:37.215Z,88
2023-02-23T04:00:11.185Z,88
2023-02-23T04:00:41.073Z,88
2023-02-23T04:01:14.019Z,88
2023-02-23T04:01:45.160Z,88
2023-02-23T04:02:18.257Z,88
2023-02-23T04:02:49.104Z,88
2023-02-23T04:03:22.122Z,88
2023-02-23T04:03:53.168Z,88
2023-02-23T04:04:25.904Z,88
2023-02-23T04:04:57.132Z,88
2023-02-23T04:05:31.345Z,88
2023-02-23T04:06:01.159Z,88
2023-02-23T04:06:34.082Z,88
2023-02-23T04:07:05.201Z,88
2023-02-23T04:07:38.316Z,88
2023-02-23T04:08:09.057Z,88
2023-02-23T04:08:41.997Z,88
2023-02-23T04:09:13.295Z,88
2023-02-23T04:09:46.970Z,88
2023-02-23T04:10:17.494Z,88
2023-02-23T04:10:50.198Z,88
2023-02-23T04:11:21.392Z,88
2023-02-23T04:11:54.096Z,88
2023-02-23T04:12:25.126Z,88
2023-02-23T04:12:58.203Z,88
2023-02-23T04:13:28.943Z,88
2023-02-23T04:14:02.026Z,88
2023-02-23T04:14:33.236Z,88
2023-02-23T04:15:07.112Z,88
2023-02-23T04:15:37.273Z,88
2023-02-23T04:16:10.220Z,88
2023-02-23T04:16:41.076Z,88
2023-02-23T04:17:13.988Z,88
2023-02-23T04:17:45.178Z,88
2023-02-23T04:18:18.976Z,88
2023-02-23T04:18:49.038Z,88
2023-02-23T04:19:21.887Z,88
2023-02-23T04:19:53.122Z,88
2023-02-23T04:20:26.317Z,88
2023-02-23T04:20:57.111Z,88
2023-02-23T04:21:30.030Z,88
2023-02-23T04:22:01.350Z,88
2023-02-23T04:22:34.196Z,88
2023-02-23T04:23:05.263Z,88
2023-02-23T04:23:39.179Z,88
2023-02-23T04:24:09.076Z,88
2023-02-23T04:24:42.046Z,88
2023-02-23T04:25:13.640Z,88
2023-02-23T04:25:46.133Z,88
2023-02-23T04:26:17.092Z,88
2023-02-23T04:26:50.118Z,88
2023-02-23T04:27:21.200Z,88
2023-02-23T04:28:00.243Z,88
2023-02-23T04:28:25.133Z,88
2023-02-23T04:28:57.236Z,88
2023-02-23T04:29:29.420Z,88
2023-02-23T04:30:02.541Z,88
2023-02-23T04:30:33.394Z,88
2023-02-23T04:31:05.239Z,88
2023-02-23T04:31:38.096Z,88
2023-02-23T04:32:09.408Z,88
2023-02-23T04:32:42.490Z,88
2023-02-23T04:33:13.090Z,88
2023-02-23T04:33:45.993Z,88
2023-02-23T04:34:17.171Z,88
2023-02-23T04:34:49.980Z,88
2023-02-23T04:35:21.591Z,88
2023-02-23T04:35:54.164Z,88
2023-02-23T04:36:25.174Z,88
2023-02-23T04:36:57.919Z,88
2023-02-23T04:37:29.272Z,88
2023-02-23T04:38:02.334Z,88
2023-02-23T04:38:33.084Z,88
2023-02-23T04:39:07.219Z,88
2023-02-23T04:39:37.718Z,88
2023-02-23T04:40:10.111Z,88
2023-02-23T04:40:41.089Z,88
2023-02-23T04:41:14.159Z,88
2023-02-23T04:41:45.192Z,88
2023-02-23T04:42:17.872Z,88
2023-02-23T04:42:49.085Z,88
2023-02-23T04:43:22.110Z,88
2023-02-23T04:43:53.242Z,89
2023-02-23T04:44:25.935Z,89
2023-02-23T04:44:57.190Z,89
2023-02-23T04:45:31.148Z,89
2023-02-23T04:46:01.202Z,89
2023-02-23T04:46:33.972Z,89
2023-02-23T04:47:05.224Z,89
2023-02-23T04:47:38.909Z,89
2023-02-23T04:48:09.218Z,89
2023-02-23T04:48:42.122Z,89
2023-02-23T04:49:13.216Z,89
2023-02-23T04:49:46.140Z,89
2023-02-23T04:50:17.436Z,89
2023-02-23T04:50:49.963Z,89
2023-02-23T04:51:21.167Z,89
2023-02-23T04:51:37.219Z,89
2023-02-23T04:52:09.271Z,89
2023-02-23T04:52:41.091Z,89
2023-02-23T04:53:14.393Z,89
2023-02-23T04:53:45.292Z,89
2023-02-23T04:54:18.007Z,89
2023-02-23T04:54:49.067Z,89
2023-02-23T04:55:05.511Z,89
2023-02-23T04:55:36.936Z,89
2023-02-23T04:56:09.153Z,89
2023-02-23T04:56:41.190Z,89
2023-02-23T04:57:13.157Z,89
2023-02-23T04:57:46.027Z,89
2023-02-23T04:58:17.233Z,89
2023-02-23T04:58:49.912Z,89
2023-02-23T04:59:21.103Z,89
2023-02-23T04:59:54.095Z,89
2023-02-23T05:00:26.344Z,89
2023-02-23T05:00:58.172Z,89
2023-02-23T05:01:29.154Z,89
2023-02-23T05:02:02.186Z,89
2023-02-23T05:02:33.017Z,89
2023-02-23T05:03:06.114Z,89
2023-02-23T05:03:37.220Z,89
2023-02-23T05:04:10.061Z,89
2023-02-23T05:04:41.117Z,89
2023-02-23T05:05:17.177Z,89
2023-02-23T05:05:45.202Z,89
2023-02-23T05:06:17.933Z,89
2023-02-23T05:06:49.072Z,89
2023-02-23T05:07:22.071Z,89
2023-02-23T05:07:53.291Z,89
2023-02-23T05:08:27.001Z,89
2023-02-23T05:08:57.117Z,89
2023-02-23T05:09:30.079Z,89
2023-02-23T05:10:01.553Z,89
2023-02-23T05:10:33.953Z,89
2023-02-23T05:11:05.262Z,89
2023-02-23T05:11:38.120Z,89
2023-02-23T05:12:09.239Z,89
2023-02-23T05:12:42.189Z,89
2023-02-23T05:13:13.291Z,89
2023-02-23T05:13:46.842Z,89
2023-02-23T05:14:17.191Z,89
2023-02-23T05:14:50.099Z,89
2023-02-23T05:15:22.354Z,89
2023-02-23T05:15:57.126Z,89
2023-02-23T05:16:25.185Z,89
2023-02-23T05:16:58.034Z,89
2023-02-23T05:17:29.173Z,89
2023-02-23T05:18:02.173Z,89
2023-02-23T05:18:33.141Z,89
2023-02-23T05:19:06.917Z,89
2023-02-23T05:19:37.131Z,89
2023-02-23T05:20:10.297Z,89
2023-02-23T05:20:41.195Z,89
2023-02-23T05:21:13.934Z,89
2023-02-23T05:21:45.123Z,89
2023-02-23T05:22:18.195Z,89
2023-02-23T05:22:49.077Z,89
2023-02-23T05:23:22.016Z,89
2023-02-23T05:23:53.198Z,89
2023-02-23T05:24:26.236Z,90
2023-02-23T05:24:57.557Z,90
2023-02-23T05:25:31.540Z,90
2023-02-23T05:26:01.322Z,90
2023-02-23T05:26:33.741Z,90
2023-02-23T05:27:05.141Z,90
2023-02-23T05:27:38.175Z,90
2023-02-23T05:28:09.189Z,90
2023-02-23T05:28:42.790Z,90
2023-02-23T05:29:13.209Z,90
2023-02-23T05:29:46.903Z,90
2023-02-23T05:30:17.968Z,90
2023-02-23T05:30:50.559Z,90
2023-02-23T05:31:21.585Z,90
2023-02-23T05:31:54.405Z,90
2023-02-23T05:32:25.206Z,90
2023-02-23T05:32:58.083Z,90
2023-02-23T05:33:29.180Z,90
2023-02-23T05:34:02.078Z,90
2023-02-23T05:34:33.282Z,90
2023-02-23T05:35:07.058Z,90
2023-02-23T05:35:37.298Z,90
2023-02-23T05:36:09.981Z,90
2023-02-23T05:36:41.194Z,90
2023-02-23T05:37:14.130Z,90
2023-02-23T05:37:45.034Z,90
2023-02-23T05:38:17.931Z,90
2023-02-23T05:38:49.256Z,90
2023-02-23T05:39:22.097Z,90
2023-02-23T05:39:53.117Z,90
2023-02-23T05:40:26.165Z,90
2023-02-23T05:40:57.212Z,90
2023-02-23T05:41:29.962Z,90
2023-02-23T05:42:01.054Z,90
2023-02-23T05:42:34.184Z,90
2023-02-23T05:43:05.182Z,90
2023-02-23T05:43:37.872Z,90
2023-02-23T05:44:09.230Z,90
2023-02-23T05:44:42.211Z,90
2023-02-23T05:45:14.110Z,90
2023-02-23T05:45:46.200Z,90
2023-02-23T05:46:17.280Z,90
2023-02-23T05:46:50.112Z,90
2023-02-23T05:47:21.097Z,90
2023-02-23T05:47:53.978Z,90
2023-02-23T05:48:25.244Z,90
2023-02-23T05:48:58.221Z,90
2023-02-23T05:49:29.256Z,90
2023-02-23T05:50:02.370Z,90
2023-02-23T05:50:33.260Z,90
2023-02-23T05:51:06.677Z,90
2023-02-23T05:51:37.260Z,90
2023-02-23T05:52:10.129Z,90
2023-02-23T05:52:41.163Z,90
2023-02-23T05:53:14.024Z,90
2023-02-23T05:53:45.234Z,90
2023-02-23T05:54:18.931Z,90
2023-02-23T05:54:49.102Z,90
2023-02-23T05:55:22.211Z,90
2023-02-23T05:55:53.182Z,90
2023-02-23T05:56:25.846Z,90
2023-02-23T05:56:57.133Z,90
2023-02-23T05:57:30.170Z,90
2023-02-23T05:58:01.363Z,90
2023-02-23T05:58:33.966Z,90
2023-02-23T05:59:05.328Z,90
2023-02-23T05:59:38.142Z,90
2023-02-23T06:00:10.268Z,90
2023-02-23T06:00:42.132Z,90
2023-02-23T06:01:13.361Z,90
2023-02-23T06:01:45.842Z,90
2023-02-23T06:02:17.342Z,90
2023-02-23T06:02:50.139Z,90
2023-02-23T06:03:21.366Z,90
2023-02-23T06:03:54.869Z,90
2023-02-23T06:04:25.243Z,90
2023-02-23T06:04:58.844Z,90
2023-02-23T06:05:29.426Z,90
2023-02-23T06:06:02.171Z,90
2023-02-23T06:06:33.209Z,90
2023-02-23T06:07:06.312Z,90
2023-02-23T06:07:37.248Z,90
2023-02-23T06:08:10.954Z,90
2023-02-23T06:08:41.223Z,90
2023-02-23T06:09:13.969Z,90
2023-02-23T06:09:45.236Z,90
2023-02-23T06:10:18.263Z,90
2023-02-23T06:10:49.082Z,90
2023-02-23T06:11:22.262Z,90
2023-02-23T06:11:53.222Z,90
2023-02-23T06:12:26.257Z,90
2023-02-23T06:12:57.124Z,90
2023-02-23T06:13:29.870Z,90
2023-02-23T06:14:01.217Z,90
2023-02-23T06:14:34.889Z,90
2023-02-23T06:15:06.270Z,90
2023-02-23T06:15:38.241Z,90
2023-02-23T06:16:09.488Z,90
2023-02-23T06:16:42.059Z,90
2023-02-23T06:17:13.170Z,90
2023-02-23T06:17:46.189Z,90
2023-02-23T06:18:17.026Z,90
2023-02-23T06:18:49.978Z,90
2023-02-23T06:19:21.193Z,90
2023-02-23T06:19:55.005Z,90
2023-02-23T06:20:25.470Z,90
2023-02-23T06:20:57.937Z,90
2023-02-23T06:21:29.268Z,90
2023-02-23T06:22:03.503Z,90
2023-02-23T06:22:33.449Z,90
2023-02-23T06:23:06.180Z,90
2023-02-23T06:23:37.576Z,90
2023-02-23T06:24:10.072Z,90
2023-02-23T06:24:41.417Z,90
2023-02-23T06:25:14.670Z,90
2023-02-23T06:25:45.228Z,90
2023-02-23T06:26:18.288Z,90
2023-02-23T06:26:49.453Z,90
2023-02-23T06:27:22.397Z,90
2023-02-23T06:27:53.300Z,90
2023-02-23T06:28:26.132Z,90
2023-02-23T06:28:57.435Z,90
2023-02-23T06:29:30.108Z,90
2023-02-23T06:30:02.752Z,90
2023-02-23T06:30:34.295Z,90
2023-02-23T06:31:05.598Z,90
2023-02-23T06:31:38.158Z,90
2023-02-23T06:32:09.623Z,90
2023-02-23T06:32:42.411Z,90
2023-02-23T06:33:13.444Z,90
2023-02-23T06:33:46.170Z,90
2023-02-23T06:34:17.413Z,90
2023-02-23T06:34:50.486Z,90
2023-02-23T06:35:21.666Z,90
2023-02-23T06:35:55.202Z,90
2023-02-23T06:36:25.438Z,90
2023-02-23T06:36:58.106Z,90
2023-02-23T06:37:29.453Z,90
2023-02-23T06:38:02.421Z,90
2023-02-23T06:38:33.601Z,90
2023-02-23T06:39:06.149Z,90
2023-02-23T06:39:38.025Z,90
2023-02-23T06:40:10.505Z,90
2023-02-23T06:40:41.411Z,90
2023-02-23T06:41:15.295Z,90
2023-02-23T06:41:45.385Z,90
2023-02-23T06:42:18.301Z,90
2023-02-23T06:42:49.464Z,90
2023-02-23T06:43:23.229Z,90
2023-02-23T06:43:53.536Z,90
2023-02-23T06:44:26.133Z,90
2023-02-23T06:44:57.475Z,90
2023-02-23T06:45:31.688Z,90
2023-02-23T06:46:01.374Z,90
2023-02-23T06:46:34.490Z,90
2023-02-23T06:47:05.718Z,90
2023-02-23T06:47:38.534Z,90
2023-02-23T06:48:09.388Z,90
2023-02-23T06:48:42.239Z,90
2023-02-23T06:49:16.194Z,90
2023-02-23T06:49:46.430Z,90
2023-02-23T06:50:17.793Z,90
2023-02-23T06:50:50.349Z,90
2023-02-23T06:51:21.838Z,90
2023-02-23T06:51:54.167Z,90
2023-02-23T06:52:25.539Z,90
2023-02-23T06:52:58.425Z,90
2023-02-23T06:53:29.541Z,90
2023-02-23T06:54:02.094Z,90
2023-02-23T06:54:33.481Z,90
2023-02-23T06:55:07.584Z,90
2023-02-23T06:55:37.479Z,90
2023-02-23T06:56:12.397Z,90
2023-02-23T06:56:41.496Z,90
2023-02-23T06:57:14.485Z,90
2023-02-23T06:57:45.377Z,90
2023-02-23T06:58:18.271Z,90
2023-02-23T06:58:49.534Z,90
2023-02-23T06:59:22.167Z,90
2023-02-23T06:59:53.530Z,90
2023-02-23T07:00:30.251Z,90
2023-02-23T07:00:57.520Z,90
2023-02-23T07:01:30.506Z,90
2023-02-23T07:02:01.597Z,90
2023-02-23T07:02:34.404Z,90
2023-02-23T07:03:05.417Z,90
2023-02-23T07:03:44.543Z,90
2023-02-23T07:04:09.606Z,90
2023-02-23T07:04:41.380Z,90
2023-02-23T07:05:14.714Z,90
2023-02-23T07:05:45.504Z,90
2023-02-23T07:06:18.589Z,90
2023-02-23T07:06:49.328Z,90
2023-02-23T07:07:22.285Z,90
2023-02-23T07:07:53.368Z,90
2023-02-23T07:08:27.151Z,90
2023-02-23T07:08:57.411Z,90
2023-02-23T07:09:30.768Z,90
2023-02-23T07:10:01.957Z,90
2023-02-23T07:10:35.271Z,90
2023-02-23T07:11:05.438Z,90
2023-02-23T07:11:38.446Z,90
2023-02-23T07:12:09.441Z,90
2023-02-23T07:12:42.463Z,90
2023-02-23T07:13:13.556Z,90
2023-02-23T07:13:47.364Z,90
2023-02-23T07:14:26.014Z,90
2023-02-23T07:14:50.253Z,90
2023-02-23T07:15:22.607Z,90
2023-02-23T07:15:55.255Z,90
2023-02-23T07:16:25.473Z,90
2023-02-23T07:16:58.282Z,90
2023-02-23T07:17:29.375Z,90
2023-02-23T07:18:02.374Z,90
2023-02-23T07:18:33.388Z,90
2023-02-23T07:19:06.382Z,90
2023-02-23T07:19:37.343Z,90
2023-02-23T07:20:10.402Z,90
2023-02-23T07:20:41.468Z,90
2023-02-23T07:21:14.361Z,90
2023-02-23T07:21:45.525Z,90
2023-02-23T07:22:19.485Z,90
2023-02-23T07:22:49.516Z,90
2023-02-23T07:23:22.202Z,90
2023-02-23T07:23:53.304Z,90
2023-02-23T07:24:26.225Z,90
2023-02-23T07:24:57.428Z,90
2023-02-23T07:25:30.538Z,90
2023-02-23T07:26:01.527Z,90
2023-02-23T07:26:34.516Z,90
2023-02-23T07:27:05.350Z,90
2023-02-23T07:27:38.334Z,90
2023-02-23T07:28:09.547Z,90
2023-02-23T07:28:42.477Z,90
2023-02-23T07:29:13.428Z,90
2023-02-23T07:29:54.095Z,90
2023-02-23T07:30:18.416Z,90
2023-02-23T07:30:49.743Z,90
2023-02-23T07:31:23.298Z,90
2023-02-23T07:31:53.632Z,90
2023-02-23T07:32:27.453Z,90
2023-02-23T07:32:57.404Z,90
2023-02-23T07:33:31.424Z,90
2023-02-23T07:34:01.548Z,90